createdAt,value
2019-05-23T00:01:32.668Z,97397.62
2019-05-23T00:06:40.335Z,97397.75
2019-05-23T00:11:55.680Z,97395.52
2019-05-23T00:17:02.198Z,97391.04
2019-05-23T00:22:09.476Z,97389.00
2019-05-23T00:27:17.599Z,97387.37
2019-05-23T00:32:30.208Z,97389.86
2019-05-23T00:37:37.016Z,97386.53
2019-05-23T00:42:45.358Z,97385.56
2019-05-23T00:47:53.355Z,97382.92
2019-05-23T00:53:00.472Z,97378.27
2019-05-23T00:58:08.261Z,97376.06
2019-05-23T01:03:16.760Z,97386.53
2019-05-23T01:08:23.662Z,97386.59
2019-05-23T01:13:31.214Z,97388.75
2019-05-23T01:18:38.688Z,97390.90
2019-05-23T01:23:50.099Z,97392.89
2019-05-23T01:28:57.412Z,97403.06
2019-05-23T01:34:06.790Z,97402.89
2019-05-23T01:39:13.802Z,97395.91
2019-05-23T01:44:21.500Z,97399.67
2019-05-23T01:49:28.749Z,97388.11
2019-05-23T01:54:35.856Z,97387.34
2019-05-23T01:59:43.257Z,97385.73
2019-05-23T02:04:50.775Z,97400.62
2019-05-23T02:09:57.924Z,97399.98
2019-05-23T02:15:05.517Z,97405.42
2019-05-23T02:20:14.216Z,97401.09
2019-05-23T02:25:23.018Z,97388.25
2019-05-23T02:30:34.768Z,97394.95
2019-05-23T02:35:40.307Z,97394.39
2019-05-23T02:41:05.496Z,97393.02
2019-05-23T02:46:22.182Z,97388.67
2019-05-23T02:51:32.454Z,97395.73
2019-05-23T02:56:40.191Z,97391.57
2019-05-23T03:02:30.553Z,97390.38
2019-05-23T03:07:36.693Z,97390.38
2019-05-23T03:12:45.842Z,97385.98
2019-05-23T03:17:56.750Z,97382.88
2019-05-23T03:23:14.071Z,97378.37
2019-05-23T03:28:23.304Z,97385.56
2019-05-23T03:33:31.670Z,97388.87
2019-05-23T03:38:38.332Z,97388.85
2019-05-23T03:43:46.024Z,97392.52
2019-05-23T03:48:54.265Z,97389.42
2019-05-23T03:54:03.936Z,97395.63
2019-05-23T03:59:12.667Z,97398.38
2019-05-23T04:04:20.294Z,97397.50
2019-05-23T04:09:26.846Z,97399.85
2019-05-23T04:14:34.057Z,97399.85
2019-05-23T04:19:40.639Z,97397.69
2019-05-23T04:24:47.559Z,97394.14
2019-05-23T04:29:54.236Z,97401.69
2019-05-23T04:35:00.982Z,97401.74
2019-05-23T04:40:07.434Z,97410.63
2019-05-23T04:45:14.740Z,97408.58
2019-05-23T04:50:21.599Z,97410.99
2019-05-23T04:55:28.904Z,97409.83
2019-05-23T05:00:35.390Z,97411.94
2019-05-23T05:05:42.369Z,97414.38
2019-05-23T05:10:49.688Z,97410.98
2019-05-23T05:15:56.422Z,97424.34
2019-05-23T05:21:02.459Z,97422.55
2019-05-23T05:26:12.418Z,97419.80
2019-05-23T05:31:18.563Z,97431.25
2019-05-23T05:36:25.191Z,97432.84
2019-05-23T05:41:31.873Z,97434.36
2019-05-23T05:46:38.206Z,97433.54
2019-05-23T05:51:45.398Z,97448.36
2019-05-23T05:56:52.306Z,97445.73
2019-05-23T06:01:59.523Z,97451.02
2019-05-23T06:07:28.020Z,97449.02
2019-05-23T06:12:35.048Z,97449.30
2019-05-23T06:17:42.657Z,97450.11
2019-05-23T06:22:49.560Z,97449.70
2019-05-23T06:27:57.188Z,97462.80
2019-05-23T06:33:21.967Z,97464.60
2019-05-23T06:38:14.013Z,97464.38
2019-05-23T06:43:20.786Z,97455.12
2019-05-23T06:48:27.375Z,97450.22
2019-05-23T06:53:33.909Z,97453.28
2019-05-23T06:58:42.569Z,97454.77
2019-05-23T07:03:48.720Z,97442.67
2019-05-23T07:08:55.193Z,97451.09
2019-05-23T07:14:01.677Z,97444.70
2019-05-23T07:19:08.496Z,97451.92
2019-05-23T07:24:15.192Z,97446.08
2019-05-23T07:29:21.494Z,97451.32
2019-05-23T07:34:28.023Z,97452.27
2019-05-23T07:39:35.061Z,97452.84
2019-05-23T07:44:48.244Z,97447.84
2019-05-23T07:49:50.419Z,97445.66
2019-05-23T07:55:04.861Z,97440.80
2019-05-23T08:00:18.627Z,97428.84
2019-05-23T08:05:25.673Z,97435.27
2019-05-23T08:10:34.436Z,97436.34
2019-05-23T08:15:41.096Z,97435.25
2019-05-23T08:20:47.226Z,97438.06
2019-05-23T08:25:55.010Z,97431.91
2019-05-23T08:31:01.849Z,97434.13
2019-05-23T08:36:09.195Z,97431.14
2019-05-23T08:41:15.416Z,97432.70
2019-05-23T08:46:21.557Z,97426.27
2019-05-23T08:51:28.135Z,97426.59
2019-05-23T08:56:34.739Z,97416.49
2019-05-23T09:01:41.488Z,97418.41
2019-05-23T09:06:47.876Z,97415.68
2019-05-23T09:11:55.371Z,97400.33
2019-05-23T09:17:01.935Z,97412.01
2019-05-23T09:22:08.519Z,97402.62
2019-05-23T09:27:14.811Z,97401.73
2019-05-23T09:32:21.514Z,97396.95
2019-05-23T09:37:28.658Z,97387.22
2019-05-23T09:42:34.847Z,97387.22
2019-05-23T09:47:41.742Z,97391.24
2019-05-23T09:52:47.889Z,97385.59
2019-05-23T09:57:54.169Z,97383.59
2019-05-23T10:03:02.100Z,97377.27
2019-05-23T10:08:08.328Z,97387.31
2019-05-23T10:13:15.711Z,97374.56
2019-05-23T10:18:22.428Z,97366.25
2019-05-23T10:23:28.816Z,97360.56
2019-05-23T10:28:35.001Z,97362.12
2019-05-23T10:33:41.168Z,97356.48
2019-05-23T10:38:47.710Z,97354.05
2019-05-23T10:43:54.035Z,97350.46
2019-05-23T10:49:00.201Z,97348.80
2019-05-23T10:54:06.703Z,97336.80
2019-05-23T10:59:13.396Z,97339.49
2019-05-23T11:04:20.184Z,97337.95
2019-05-23T11:09:37.292Z,97340.81
2019-05-23T11:14:35.513Z,97339.48
2019-05-23T11:19:42.062Z,97320.14
2019-05-23T11:24:48.695Z,97320.45
2019-05-23T11:29:55.404Z,97318.55
2019-05-23T11:35:02.420Z,97311.42
2019-05-23T11:40:09.159Z,97312.82
2019-05-23T11:45:15.583Z,97310.95
2019-05-23T11:50:22.036Z,97295.95
2019-05-23T11:55:28.477Z,97293.02
2019-05-23T12:01:21.411Z,97289.59
2019-05-23T12:06:33.099Z,97281.95
2019-05-23T12:11:42.498Z,97264.30
2019-05-23T12:16:47.367Z,97270.55
2019-05-23T12:21:53.651Z,97267.10
2019-05-23T12:27:02.894Z,97253.94
2019-05-23T12:32:10.491Z,97260.25
2019-05-23T12:37:19.980Z,97258.35
2019-05-23T12:42:26.292Z,97245.23
2019-05-23T12:47:43.815Z,97246.89
2019-05-23T12:52:50.544Z,97239.98
2019-05-23T12:57:56.759Z,97236.48
2019-05-23T13:03:04.196Z,97235.07
2019-05-23T13:08:11.095Z,97225.30
2019-05-23T13:13:17.987Z,97220.88
2019-05-23T13:18:24.272Z,97219.30
2019-05-23T13:23:30.800Z,97221.23
2019-05-23T13:28:37.285Z,97214.64
2019-05-23T13:33:43.495Z,97212.74
2019-05-23T13:38:52.028Z,97205.09
2019-05-23T13:43:58.568Z,97197.14
2019-05-23T13:49:05.618Z,97194.55
2019-05-23T13:54:12.501Z,97199.21
2019-05-23T13:59:19.022Z,97194.34
2019-05-23T14:04:25.553Z,97199.31
2019-05-23T14:09:32.929Z,97195.11
2019-05-23T14:14:39.866Z,97193.37
2019-05-23T14:19:46.395Z,97179.70
2019-05-23T14:24:52.912Z,97173.09
2019-05-23T14:30:09.361Z,97177.94
2019-05-23T14:35:07.579Z,97169.23
2019-05-23T14:40:16.835Z,97174.07
2019-05-23T14:45:36.441Z,97167.22
2019-05-23T14:51:00.304Z,97158.61
2019-05-23T14:56:07.815Z,97159.10
2019-05-23T15:01:15.146Z,97159.47
2019-05-23T15:06:22.027Z,97147.87
2019-05-23T15:11:28.807Z,97142.16
2019-05-23T15:16:34.983Z,97143.05
2019-05-23T15:21:41.753Z,97133.16
2019-05-23T15:26:47.908Z,97130.25
2019-05-23T15:32:02.299Z,97128.98
2019-05-23T15:37:02.376Z,97128.11
2019-05-23T15:42:08.913Z,97126.87
2019-05-23T15:47:15.686Z,97118.79
2019-05-23T15:52:31.220Z,97113.28
2019-05-23T15:57:54.360Z,97109.06
2019-05-23T16:03:08.866Z,97103.64
2019-05-23T16:08:15.045Z,97100.43
2019-05-23T16:13:24.513Z,97098.58
2019-05-23T16:18:31.256Z,97091.27
2019-05-23T16:23:37.368Z,97092.92
2019-05-23T16:28:44.396Z,97080.95
2019-05-23T16:33:50.831Z,97080.31
2019-05-23T16:38:59.229Z,97083.28
2019-05-23T16:44:05.518Z,97091.19
2019-05-23T16:49:12.614Z,97086.36
2019-05-23T16:54:21.436Z,97081.47
2019-05-23T16:59:36.183Z,97091.31
2019-05-23T17:05:08.445Z,97088.64
2019-05-23T17:10:09.372Z,97094.19
2019-05-23T17:15:37.240Z,97089.13
2019-05-23T17:21:12.083Z,97079.01
2019-05-23T17:26:24.794Z,97086.08
2019-05-23T17:31:34.300Z,97081.58
2019-05-23T17:36:40.331Z,97081.48
2019-05-23T17:41:47.183Z,97084.88
2019-05-23T17:46:53.724Z,97083.27
2019-05-23T17:52:00.116Z,97090.37
2019-05-23T17:57:06.570Z,97088.16
2019-05-23T18:02:14.356Z,97084.66
2019-05-23T18:07:20.904Z,97078.03
2019-05-23T18:12:27.690Z,97085.70
2019-05-23T18:17:34.451Z,97074.01
2019-05-23T18:22:41.033Z,97082.52
2019-05-23T18:27:47.737Z,97089.41
2019-05-23T18:32:54.439Z,97088.20
2019-05-23T18:38:00.883Z,97087.29
2019-05-23T18:43:07.260Z,97078.66
2019-05-23T18:48:13.436Z,97086.09
2019-05-23T18:53:19.750Z,97075.72
2019-05-23T18:58:26.236Z,97085.88
2019-05-23T19:03:35.263Z,97089.73
2019-05-23T19:08:42.177Z,97084.66
2019-05-23T19:13:48.870Z,97083.36
2019-05-23T19:18:56.068Z,97085.86
2019-05-23T19:24:02.813Z,97094.06
2019-05-23T19:29:11.324Z,97099.45
2019-05-23T19:34:17.587Z,97106.11
2019-05-23T19:39:24.901Z,97103.33
2019-05-23T19:44:31.812Z,97107.84
2019-05-23T19:49:39.171Z,97105.44
2019-05-23T19:54:45.901Z,97101.30
2019-05-23T19:59:52.471Z,97098.75
2019-05-23T20:05:04.451Z,97098.46
2019-05-23T20:10:10.820Z,97099.16
2019-05-23T20:15:17.088Z,97096.38
2019-05-23T20:20:23.276Z,97094.88
2019-05-23T20:25:30.513Z,97095.52
2019-05-23T20:30:58.579Z,97092.56
2019-05-23T20:36:12.467Z,97098.97
2019-05-23T20:41:18.216Z,97091.74
2019-05-23T20:46:24.863Z,97085.83
2019-05-23T20:51:31.704Z,97086.88
2019-05-23T20:56:38.482Z,97086.44
2019-05-23T21:01:45.053Z,97088.06
2019-05-23T21:06:51.517Z,97089.94
2019-05-23T21:11:58.266Z,97089.37
2019-05-23T21:17:04.738Z,97085.80
2019-05-23T21:22:11.349Z,97085.17
2019-05-23T21:27:18.290Z,97080.82
2019-05-23T21:32:24.719Z,97082.08
2019-05-23T21:37:31.500Z,97079.84
2019-05-23T21:42:47.262Z,97085.80
2019-05-23T21:47:45.915Z,97084.16
2019-05-23T21:52:53.051Z,97089.48
2019-05-23T21:57:59.075Z,97092.03
2019-05-23T22:03:06.905Z,97096.52
2019-05-23T22:08:12.995Z,97093.18
2019-05-23T22:13:20.072Z,97082.09
2019-05-23T22:18:27.508Z,97088.09
2019-05-23T22:23:34.865Z,97079.30
2019-05-23T22:28:41.531Z,97077.75
2019-05-23T22:33:53.591Z,97075.11
2019-05-23T22:38:59.928Z,97072.08
2019-05-23T22:44:07.990Z,97064.21
2019-05-23T22:49:14.195Z,97060.64
2019-05-23T22:54:20.372Z,97056.16
2019-05-23T22:59:26.991Z,97059.63
2019-05-23T23:04:33.530Z,97061.55
2019-05-23T23:09:40.555Z,97057.08
2019-05-23T23:14:46.566Z,97053.54
2019-05-23T23:19:52.990Z,97052.55
2019-05-23T23:24:59.762Z,97052.48
2019-05-23T23:30:06.569Z,97049.75
2019-05-23T23:35:16.115Z,97041.95
2019-05-23T23:40:22.579Z,97046.93
2019-05-23T23:45:46.402Z,97048.27
2019-05-23T23:51:11.410Z,97036.64
2019-05-23T23:56:35.730Z,97039.10
